sensor_id;sensor_type;location;lat;lon;timestamp;pressure;altitude;pressure_sealevel;temperature;humidity
9110;BME280;4590;51.462;6.692;2022-09-12T00:01:44;101524.97;;;16.99;68.29
9110;BME280;4590;51.462;6.692;2022-09-12T00:04:10;101524.50;;;16.97;68.11
9110;BME280;4590;51.462;6.692;2022-09-12T00:06:36;101522.84;;;16.96;68.07
9110;BME280;4590;51.462;6.692;2022-09-12T00:09:12;101519.75;;;16.89;68.06
9110;BME280;4590;51.462;6.692;2022-09-12T00:11:40;101526.63;;;16.92;67.92
9110;BME280;4590;51.462;6.692;2022-09-12T00:14:07;101521.38;;;16.90;68.14
9110;BME280;4590;51.462;6.692;2022-09-12T00:16:34;101521.72;;;16.89;67.95
9110;BME280;4590;51.462;6.692;2022-09-12T00:19:00;101519.25;;;16.87;68.07
9110;BME280;4590;51.462;6.692;2022-09-12T00:21:28;101517.94;;;16.84;67.87
9110;BME280;4590;51.462;6.692;2022-09-12T00:23:53;101520.28;;;16.82;67.90
9110;BME280;4590;51.462;6.692;2022-09-12T00:26:20;101521.75;;;16.80;67.65
9110;BME280;4590;51.462;6.692;2022-09-12T00:28:46;101508.81;;;16.75;67.74
9110;BME280;4590;51.462;6.692;2022-09-12T00:31:13;101509.31;;;16.60;68.24
9110;BME280;4590;51.462;6.692;2022-09-12T00:33:39;101508.84;;;16.67;67.81
9110;BME280;4590;51.462;6.692;2022-09-12T00:36:06;101501.66;;;16.66;68.13
9110;BME280;4590;51.462;6.692;2022-09-12T00:38:33;101509.19;;;16.65;68.18
9110;BME280;4590;51.462;6.692;2022-09-12T00:41:03;101490.88;;;16.64;68.11
9110;BME280;4590;51.462;6.692;2022-09-12T00:45:53;101496.22;;;16.61;68.19
9110;BME280;4590;51.462;6.692;2022-09-12T00:48:23;101498.53;;;16.59;68.10
9110;BME280;4590;51.462;6.692;2022-09-12T00:50:53;101503.25;;;16.58;68.04
9110;BME280;4590;51.462;6.692;2022-09-12T00:53:19;101499.66;;;16.58;68.03
9110;BME280;4590;51.462;6.692;2022-09-12T00:55:46;101495.25;;;16.57;68.17
9110;BME280;4590;51.462;6.692;2022-09-12T01:00:42;101492.31;;;16.53;67.94
9110;BME280;4590;51.462;6.692;2022-09-12T01:03:10;101486.59;;;16.49;67.98
9110;BME280;4590;51.462;6.692;2022-09-12T01:05:41;101483.34;;;16.47;68.21
9110;BME280;4590;51.462;6.692;2022-09-12T01:08:09;101481.69;;;16.46;68.29
9110;BME280;4590;51.462;6.692;2022-09-12T01:10:36;101490.38;;;16.45;68.33
9110;BME280;4590;51.462;6.692;2022-09-12T01:13:04;101479.56;;;16.43;68.58
9110;BME280;4590;51.462;6.692;2022-09-12T01:15:29;101479.56;;;16.43;68.58
9110;BME280;4590;51.462;6.692;2022-09-12T01:18:23;101483.66;;;16.37;68.46
9110;BME280;4590;51.462;6.692;2022-09-12T01:21:02;101487.41;;;16.41;68.57
9110;BME280;4590;51.462;6.692;2022-09-12T01:31:52;101476.97;;;16.30;68.25
9110;BME280;4590;51.462;6.692;2022-09-12T01:34:25;101464.72;;;16.31;68.52
9110;BME280;4590;51.462;6.692;2022-09-12T01:37:10;101466.84;;;16.25;68.22
9110;BME280;4590;51.462;6.692;2022-09-12T01:40:11;101473.84;;;16.23;68.29
9110;BME280;4590;51.462;6.692;2022-09-12T01:45:17;101474.22;;;16.21;68.12
9110;BME280;4590;51.462;6.692;2022-09-12T01:47:48;101464.25;;;16.20;68.41
9110;BME280;4590;51.462;6.692;2022-09-12T01:50:21;101462.44;;;16.16;68.67
9110;BME280;4590;51.462;6.692;2022-09-12T01:53:14;101464.56;;;16.10;69.03
9110;BME280;4590;51.462;6.692;2022-09-12T01:55:45;101458.03;;;16.14;68.92
9110;BME280;4590;51.462;6.692;2022-09-12T01:58:17;101458.53;;;16.17;68.96
9110;BME280;4590;51.462;6.692;2022-09-12T02:01:02;101464.22;;;16.11;68.81
9110;BME280;4590;51.462;6.692;2022-09-12T02:03:33;101448.56;;;16.16;69.04
9110;BME280;4590;51.462;6.692;2022-09-12T02:06:09;101446.44;;;16.12;68.87
9110;BME280;4590;51.462;6.692;2022-09-12T02:08:50;101439.88;;;16.08;68.76
9110;BME280;4590;51.462;6.692;2022-09-12T02:11:17;101436.78;;;16.10;68.95
9110;BME280;4590;51.462;6.692;2022-09-12T02:13:48;101432.69;;;16.07;68.94
9110;BME280;4590;51.462;6.692;2022-09-12T02:16:18;101431.88;;;16.07;68.98
9110;BME280;4590;51.462;6.692;2022-09-12T02:18:51;101432.69;;;16.07;69.32
9110;BME280;4590;51.462;6.692;2022-09-12T02:21:19;101429.59;;;16.09;69.39
9110;BME280;4590;51.462;6.692;2022-09-12T02:23:50;101436.28;;;16.08;69.34
9110;BME280;4590;51.462;6.692;2022-09-12T02:26:24;101436.78;;;16.10;69.42
9110;BME280;4590;51.462;6.692;2022-09-12T02:28:52;101433.69;;;16.11;69.56
9110;BME280;4590;51.462;6.692;2022-09-12T02:31:36;101434.81;;;16.10;69.42
9110;BME280;4590;51.462;6.692;2022-09-12T02:37:06;101429.59;;;16.09;69.26
9110;BME280;4590;51.462;6.692;2022-09-12T02:39:37;101425.69;;;16.10;69.63
9110;BME280;4590;51.462;6.692;2022-09-12T02:42:03;101428.47;;;16.10;69.41
9110;BME280;4590;51.462;6.692;2022-09-12T02:44:29;101432.38;;;16.09;69.55
9110;BME280;4590;51.462;6.692;2022-09-12T02:47:08;101429.59;;;16.09;69.50
9110;BME280;4590;51.462;6.692;2022-09-12T02:49:35;101428.78;;;16.08;69.50
9110;BME280;4590;51.462;6.692;2022-09-12T02:52:01;101422.41;;;16.08;69.35
9110;BME280;4590;51.462;6.692;2022-09-12T02:54:27;101419.63;;;16.08;69.57
9110;BME280;4590;51.462;6.692;2022-09-12T02:56:52;101418.81;;;16.07;69.50
9110;BME280;4590;51.462;6.692;2022-09-12T02:59:20;101421.91;;;16.06;69.17
9110;BME280;4590;51.462;6.692;2022-09-12T03:02:14;101413.13;;;16.04;69.49
9110;BME280;4590;51.462;6.692;2022-09-12T03:10:31;101420.97;;;16.02;69.38
9110;BME280;4590;51.462;6.692;2022-09-12T03:16:08;101415.41;;;15.93;69.38
9110;BME280;4590;51.462;6.692;2022-09-12T03:19:02;101415.72;;;15.92;69.47
9110;BME280;4590;51.462;6.692;2022-09-12T03:21:36;101411.16;;;15.96;69.49
9110;BME280;4590;51.462;6.692;2022-09-12T03:24:12;101411.47;;;15.94;69.32
9110;BME280;4590;51.462;6.692;2022-09-12T03:26:44;101410.00;;;15.97;69.36
9110;BME280;4590;51.462;6.692;2022-09-12T03:29:12;101411.66;;;15.98;69.63
9110;BME280;4590;51.462;6.692;2022-09-12T03:31:48;101414.25;;;15.94;69.37
9110;BME280;4590;51.462;6.692;2022-09-12T03:34:14;101411.16;;;15.96;69.37
9110;BME280;4590;51.462;6.692;2022-09-12T03:36:39;101404.28;;;15.93;69.43
9110;BME280;4590;51.462;6.692;2022-09-12T03:39:05;101398.25;;;15.91;69.54
9110;BME280;4590;51.462;6.692;2022-09-12T03:41:30;101406.94;;;15.90;69.43
9110;BME280;4590;51.462;6.692;2022-09-12T03:43:56;101410.84;;;15.89;69.73
9110;BME280;4590;51.462;6.692;2022-09-12T03:46:21;101403.34;;;15.89;69.53
9110;BME280;4590;51.462;6.692;2022-09-12T03:48:46;101408.06;;;15.89;69.49
9110;BME280;4590;51.462;6.692;2022-09-12T03:51:12;101411.16;;;15.87;69.73
9110;BME280;4590;51.462;6.692;2022-09-12T03:53:37;101404.78;;;15.87;69.67
9110;BME280;4590;51.462;6.692;2022-09-12T03:56:07;101402.34;;;15.85;69.66
9110;BME280;4590;51.462;6.692;2022-09-12T03:58:33;101398.44;;;15.86;69.56
9110;BME280;4590;51.462;6.692;2022-09-12T04:01:04;101399.25;;;15.87;69.47
9110;BME280;4590;51.462;6.692;2022-09-12T04:03:30;101403.16;;;15.86;69.56
9110;BME280;4590;51.462;6.692;2022-09-12T04:05:56;101395.97;;;15.85;69.55
9110;BME280;4590;51.462;6.692;2022-09-12T04:08:22;101393.53;;;15.83;69.56
9110;BME280;4590;51.462;6.692;2022-09-12T04:10:47;101399.41;;;15.82;69.45
9110;BME280;4590;51.462;6.692;2022-09-12T04:13:12;101395.81;;;15.81;69.56
9110;BME280;4590;51.462;6.692;2022-09-12T04:15:38;101398.91;;;15.79;69.58
9110;BME280;4590;51.462;6.692;2022-09-12T04:18:03;101390.56;;;15.79;69.65
9110;BME280;4590;51.462;6.692;2022-09-12T04:20:28;101392.53;;;15.79;69.68
9110;BME280;4590;51.462;6.692;2022-09-12T04:22:53;101383.06;;;15.80;69.87
9110;BME280;4590;51.462;6.692;2022-09-12T04:25:19;101388.63;;;15.80;70.00
9110;BME280;4590;51.462;6.692;2022-09-12T04:27:44;101393.03;;;15.81;69.56
9110;BME280;4590;51.462;6.692;2022-09-12T04:30:09;101389.13;;;15.82;70.16
9110;BME280;4590;51.462;6.692;2022-09-12T04:32:35;101378.00;;;15.82;70.15
9110;BME280;4590;51.462;6.692;2022-09-12T04:35:00;101376.06;;;15.83;70.42
9110;BME280;4590;51.462;6.692;2022-09-12T04:37:26;101387.66;;;15.85;70.53
9110;BME280;4590;51.462;6.692;2022-09-12T04:39:51;101390.09;;;15.86;70.52
9110;BME280;4590;51.462;6.692;2022-09-12T04:42:22;101385.38;;;15.87;70.39
9110;BME280;4590;51.462;6.692;2022-09-12T04:44:47;101373.13;;;15.88;70.54
9110;BME280;4590;51.462;6.692;2022-09-12T04:47:13;101375.91;;;15.88;70.61
9110;BME280;4590;51.462;6.692;2022-09-12T04:49:38;101373.63;;;15.90;70.86
9110;BME280;4590;51.462;6.692;2022-09-12T04:52:03;101370.03;;;15.89;70.68
9110;BME280;4590;51.462;6.692;2022-09-12T04:54:28;101368.84;;;15.90;70.93
9110;BME280;4590;51.462;6.692;2022-09-12T04:56:54;101370.16;;;15.93;70.88
9110;BME280;4590;51.462;6.692;2022-09-12T04:59:21;101360.69;;;15.94;70.76
9110;BME280;4590;51.462;6.692;2022-09-12T05:01:47;101367.56;;;15.96;70.74
9110;BME280;4590;51.462;6.692;2022-09-12T05:04:13;101366.41;;;15.97;70.88
9110;BME280;4590;51.462;6.692;2022-09-12T05:06:39;101357.28;;;15.97;70.98
9110;BME280;4590;51.462;6.692;2022-09-12T05:09:06;101360.38;;;15.95;71.14
9110;BME280;4590;51.462;6.692;2022-09-12T05:11:37;101355.97;;;15.94;71.23
9110;BME280;4590;51.462;6.692;2022-09-12T05:14:03;101358.41;;;15.96;71.34
9110;BME280;4590;51.462;6.692;2022-09-12T05:16:29;101353.69;;;15.96;71.25
9110;BME280;4590;51.462;6.692;2022-09-12T05:18:56;101357.09;;;15.93;71.72
9110;BME280;4590;51.462;6.692;2022-09-12T05:21:22;101365.13;;;15.86;72.95
9110;BME280;4590;51.462;6.692;2022-09-12T05:23:55;101366.56;;;15.92;71.24
9110;BME280;4590;51.462;6.692;2022-09-12T05:26:22;101364.94;;;16.00;71.59
9110;BME280;4590;51.462;6.692;2022-09-12T05:28:49;101371.94;;;16.06;71.30
9110;BME280;4590;51.462;6.692;2022-09-12T05:31:18;101364.59;;;16.10;71.26
9110;BME280;4590;51.462;6.692;2022-09-12T05:33:46;101357.91;;;16.11;71.32
9110;BME280;4590;51.462;6.692;2022-09-12T05:36:17;101363.63;;;16.14;71.17
9110;BME280;4590;51.462;6.692;2022-09-12T05:38:43;101358.25;;;16.18;71.42
9110;BME280;4590;51.462;6.692;2022-09-12T05:41:13;101354.31;;;16.10;72.86
9110;BME280;4590;51.462;6.692;2022-09-12T05:43:39;101355.75;;;16.25;71.34
9110;BME280;4590;51.462;6.692;2022-09-12T05:46:11;101355.09;;;16.28;71.28
9110;BME280;4590;51.462;6.692;2022-09-12T05:48:38;101360.00;;;16.31;71.45
9110;BME280;4590;51.462;6.692;2022-09-12T05:51:06;101358.66;;;16.37;71.27
9110;BME280;4590;51.462;6.692;2022-09-12T05:53:33;101359.00;;;16.44;71.19
9110;BME280;4590;51.462;6.692;2022-09-12T05:56:14;101361.28;;;16.42;71.25
9110;BME280;4590;51.462;6.692;2022-09-12T05:58:41;101366.50;;;16.53;71.08
9110;BME280;4590;51.462;6.692;2022-09-12T06:01:09;101365.16;;;16.59;70.85
9110;BME280;4590;51.462;6.692;2022-09-12T06:03:39;101377.75;;;16.65;70.77
9110;BME280;4590;51.462;6.692;2022-09-12T06:06:05;101382.47;;;16.73;70.69
9110;BME280;4590;51.462;6.692;2022-09-12T06:08:31;101381.69;;;16.64;70.94
9110;BME280;4590;51.462;6.692;2022-09-12T06:11:04;101382.28;;;16.78;70.18
9110;BME280;4590;51.462;6.692;2022-09-12T06:13:35;101387.69;;;16.83;70.31
9110;BME280;4590;51.462;6.692;2022-09-12T06:16:10;101385.66;;;16.92;70.26
9110;BME280;4590;51.462;6.692;2022-09-12T06:18:37;101378.63;;;16.95;70.24
9110;BME280;4590;51.462;6.692;2022-09-12T06:21:07;101382.72;;;16.97;70.15
9110;BME280;4590;51.462;6.692;2022-09-12T06:23:36;101385.78;;;17.04;70.20
9110;BME280;4590;51.462;6.692;2022-09-12T06:26:03;101383.28;;;17.11;69.98
9110;BME280;4590;51.462;6.692;2022-09-12T06:28:30;101377.19;;;17.18;69.95
9110;BME280;4590;51.462;6.692;2022-09-12T06:31:04;101377.81;;;17.24;69.73
9110;BME280;4590;51.462;6.692;2022-09-12T06:33:34;101377.75;;;17.32;69.70
9110;BME280;4590;51.462;6.692;2022-09-12T06:36:09;101373.00;;;17.33;69.25
9110;BME280;4590;51.462;6.692;2022-09-12T06:38:35;101382.28;;;17.45;69.73
9110;BME280;4590;51.462;6.692;2022-09-12T06:41:04;101376.97;;;17.52;69.39
9110;BME280;4590;51.462;6.692;2022-09-12T06:43:31;101380.19;;;17.63;69.61
9110;BME280;4590;51.462;6.692;2022-09-12T06:45:57;101382.59;;;17.73;69.59
9110;BME280;4590;51.462;6.692;2022-09-12T06:51:04;101383.63;;;17.90;69.07
9110;BME280;4590;51.462;6.692;2022-09-12T06:53:32;101382.03;;;18.01;69.19
9110;BME280;4590;51.462;6.692;2022-09-12T06:56:02;101383.94;;;18.09;69.01
9110;BME280;4590;51.462;6.692;2022-09-12T06:58:36;101383.03;;;18.17;68.93
9110;BME280;4590;51.462;6.692;2022-09-12T07:01:17;101385.16;;;18.20;68.64
9110;BME280;4590;51.462;6.692;2022-09-12T07:06:21;101388.59;;;18.38;68.40
9110;BME280;4590;51.462;6.692;2022-09-12T07:08:52;101393.56;;;18.44;68.42
9110;BME280;4590;51.462;6.692;2022-09-12T07:13:59;101390.38;;;18.54;68.03
9110;BME280;4590;51.462;6.692;2022-09-12T07:16:25;101392.13;;;18.59;67.65
9110;BME280;4590;51.462;6.692;2022-09-12T07:18:54;101385.41;;;18.60;67.67
9110;BME280;4590;51.462;6.692;2022-09-12T07:21:22;101387.97;;;18.65;67.29
9110;BME280;4590;51.462;6.692;2022-09-12T07:23:51;101385.31;;;18.69;66.91
9110;BME280;4590;51.462;6.692;2022-09-12T07:26:19;101377.53;;;18.74;67.03
9110;BME280;4590;51.462;6.692;2022-09-12T07:28:48;101377.66;;;18.66;66.26
9110;BME280;4590;51.462;6.692;2022-09-12T07:31:17;101375.34;;;18.80;66.80
9110;BME280;4590;51.462;6.692;2022-09-12T07:33:43;101369.91;;;18.83;66.60
9110;BME280;4590;51.462;6.692;2022-09-12T07:36:13;101377.09;;;18.84;66.71
9110;BME280;4590;51.462;6.692;2022-09-12T07:38:42;101379.31;;;18.91;66.57
9110;BME280;4590;51.462;6.692;2022-09-12T07:41:10;101374.19;;;18.93;66.55
9110;BME280;4590;51.462;6.692;2022-09-12T07:43:36;101376.41;;;19.00;66.18
9110;BME280;4590;51.462;6.692;2022-09-12T07:46:08;101377.69;;;19.02;66.21
9110;BME280;4590;51.462;6.692;2022-09-12T07:48:35;101381.06;;;19.08;65.91
9110;BME280;4590;51.462;6.692;2022-09-12T07:51:04;101377.56;;;19.11;66.01
9110;BME280;4590;51.462;6.692;2022-09-12T07:53:32;101382.59;;;19.17;65.77
9110;BME280;4590;51.462;6.692;2022-09-12T07:55:59;101382.31;;;19.22;65.81
9110;BME280;4590;51.462;6.692;2022-09-12T07:58:24;101381.19;;;19.11;64.95
9110;BME280;4590;51.462;6.692;2022-09-12T08:00:51;101377.00;;;19.30;65.84
9110;BME280;4590;51.462;6.692;2022-09-12T08:03:17;101375.13;;;19.34;65.68
9110;BME280;4590;51.462;6.692;2022-09-12T08:05:43;101384.41;;;19.38;65.42
9110;BME280;4590;51.462;6.692;2022-09-12T08:08:09;101385.81;;;19.44;65.71
9110;BME280;4590;51.462;6.692;2022-09-12T08:10:35;101386.50;;;19.41;64.92
9110;BME280;4590;51.462;6.692;2022-09-12T08:13:01;101383.97;;;19.60;65.24
9110;BME280;4590;51.462;6.692;2022-09-12T08:15:28;101391.13;;;19.73;65.49
9110;BME280;4590;51.462;6.692;2022-09-12T08:17:54;101378.41;;;19.88;65.24
9110;BME280;4590;51.462;6.692;2022-09-12T08:20:20;101387.19;;;20.02;65.30
9110;BME280;4590;51.462;6.692;2022-09-12T08:22:46;101387.66;;;20.04;62.73
9110;BME280;4590;51.462;6.692;2022-09-12T08:25:12;101377.75;;;20.35;64.68
9110;BME280;4590;51.462;6.692;2022-09-12T08:27:39;101383.50;;;20.54;63.89
9110;BME280;4590;51.462;6.692;2022-09-12T08:30:07;101383.28;;;20.75;63.84
9110;BME280;4590;51.462;6.692;2022-09-12T08:32:34;101381.34;;;20.94;63.21
9110;BME280;4590;51.462;6.692;2022-09-12T08:35:00;101390.03;;;21.05;60.88
9110;BME280;4590;51.462;6.692;2022-09-12T08:37:29;101369.81;;;21.27;61.60
9110;BME280;4590;51.462;6.692;2022-09-12T08:39:55;101371.03;;;21.46;61.41
9110;BME280;4590;51.462;6.692;2022-09-12T08:42:45;101369.63;;;21.71;60.47
9110;BME280;4590;51.462;6.692;2022-09-12T08:45:18;101379.34;;;21.77;58.15
9110;BME280;4590;51.462;6.692;2022-09-12T08:47:48;101366.78;;;22.06;59.11
9110;BME280;4590;51.462;6.692;2022-09-12T08:50:18;101371.13;;;22.23;58.54
9110;BME280;4590;51.462;6.692;2022-09-12T08:52:57;101372.97;;;22.34;56.30
9110;BME280;4590;51.462;6.692;2022-09-12T08:55:51;101376.03;;;22.49;55.85
9110;BME280;4590;51.462;6.692;2022-09-12T08:58:20;101380.09;;;22.74;56.73
9110;BME280;4590;51.462;6.692;2022-09-12T09:06:34;101381.28;;;23.19;55.44
9110;BME280;4590;51.462;6.692;2022-09-12T09:09:08;101377.63;;;23.41;56.10
9110;BME280;4590;51.462;6.692;2022-09-12T09:12:09;101367.81;;;23.54;53.36
9110;BME280;4590;51.462;6.692;2022-09-12T09:14:57;101376.97;;;23.77;52.77
9110;BME280;4590;51.462;6.692;2022-09-12T09:17:34;101379.69;;;24.00;53.92
9110;BME280;4590;51.462;6.692;2022-09-12T09:20:18;101373.69;;;24.02;50.12
9110;BME280;4590;51.462;6.692;2022-09-12T09:23:28;101368.69;;;24.22;50.93
9110;BME280;4590;51.462;6.692;2022-09-12T09:28:42;101355.81;;;24.54;50.74
9110;BME280;4590;51.462;6.692;2022-09-12T09:31:24;101358.47;;;24.80;49.64
9110;BME280;4590;51.462;6.692;2022-09-12T09:33:51;101355.06;;;25.05;51.77
9110;BME280;4590;51.462;6.692;2022-09-12T09:36:47;101353.97;;;25.16;48.65
9110;BME280;4590;51.462;6.692;2022-09-12T09:44:32;101345.91;;;25.77;49.62
9110;BME280;4590;51.462;6.692;2022-09-12T09:46:58;101346.00;;;25.98;49.63
9110;BME280;4590;51.462;6.692;2022-09-12T09:49:27;101341.59;;;26.08;48.72
9110;BME280;4590;51.462;6.692;2022-09-12T09:51:54;101346.88;;;26.20;48.36
9110;BME280;4590;51.462;6.692;2022-09-12T09:54:23;101335.66;;;26.38;48.75
9110;BME280;4590;51.462;6.692;2022-09-12T09:56:50;101336.91;;;26.54;47.82
9110;BME280;4590;51.462;6.692;2022-09-12T09:59:25;101341.34;;;26.66;47.22
9110;BME280;4590;51.462;6.692;2022-09-12T10:01:56;101336.53;;;26.84;46.76
9110;BME280;4590;51.462;6.692;2022-09-12T10:04:29;101340.19;;;26.99;46.63
9110;BME280;4590;51.462;6.692;2022-09-12T10:07:00;101330.09;;;27.02;45.03
9110;BME280;4590;51.462;6.692;2022-09-12T10:09:28;101329.69;;;27.21;45.07
9110;BME280;4590;51.462;6.692;2022-09-12T10:11:55;101328.41;;;27.40;45.00
9110;BME280;4590;51.462;6.692;2022-09-12T10:16:52;101317.47;;;27.70;43.99
9110;BME280;4590;51.462;6.692;2022-09-12T10:19:23;101312.97;;;27.73;42.23
9110;BME280;4590;51.462;6.692;2022-09-12T10:21:56;101304.50;;;27.76;43.21
9110;BME280;4590;51.462;6.692;2022-09-12T10:27:06;101304.50;;;27.80;41.27
9110;BME280;4590;51.462;6.692;2022-09-12T10:29:34;101301.97;;;27.96;43.44
9110;BME280;4590;51.462;6.692;2022-09-12T10:32:06;101291.06;;;28.02;42.22
9110;BME280;4590;51.462;6.692;2022-09-12T10:34:38;101293.00;;;28.08;41.51
9110;BME280;4590;51.462;6.692;2022-09-12T10:37:09;101294.16;;;28.18;41.58
9110;BME280;4590;51.462;6.692;2022-09-12T10:39:49;101291.38;;;28.14;41.09
9110;BME280;4590;51.462;6.692;2022-09-12T10:42:43;101287.72;;;28.17;41.52
9110;BME280;4590;51.462;6.692;2022-09-12T10:45:02;101284.41;;;28.33;41.61
9110;BME280;4590;51.462;6.692;2022-09-12T10:47:29;101292.81;;;28.44;40.86
9110;BME280;4590;51.462;6.692;2022-09-12T10:50:26;101287.56;;;28.46;40.37
9110;BME280;4590;51.462;6.692;2022-09-12T10:52:52;101279.34;;;28.62;41.85
9110;BME280;4590;51.462;6.692;2022-09-12T10:55:24;101284.53;;;28.67;40.92
9110;BME280;4590;51.462;6.692;2022-09-12T10:58:13;101274.09;;;28.60;38.34
9110;BME280;4590;51.462;6.692;2022-09-12T11:00:46;101279.34;;;28.62;39.19
9110;BME280;4590;51.462;6.692;2022-09-12T11:03:22;101276.13;;;28.56;37.41
9110;BME280;4590;51.462;6.692;2022-09-12T11:05:52;101273.25;;;28.63;39.27
9110;BME280;4590;51.462;6.692;2022-09-12T11:08:39;101272.25;;;28.36;36.75
9110;BME280;4590;51.462;6.692;2022-09-12T11:11:22;101267.28;;;28.51;39.06
9110;BME280;4590;51.462;6.692;2022-09-12T11:16:43;101250.16;;;28.10;37.28
9110;BME280;4590;51.462;6.692;2022-09-12T11:19:27;101257.38;;;28.18;39.16
9110;BME280;4590;51.462;6.692;2022-09-12T11:30:15;101245.00;;;28.01;38.15
9110;BME280;4590;51.462;6.692;2022-09-12T11:35:31;101235.72;;;27.93;38.80
9110;BME280;4590;51.462;6.692;2022-09-12T11:41:02;101230.56;;;27.81;37.75
9110;BME280;4590;51.462;6.692;2022-09-12T11:43:37;101218.03;;;27.79;38.96
9110;BME280;4590;51.462;6.692;2022-09-12T11:51:40;101219.78;;;27.48;38.45
9110;BME280;4590;51.462;6.692;2022-09-12T11:56:43;101227.56;;;27.15;37.41
9110;BME280;4590;51.462;6.692;2022-09-12T11:59:30;101218.34;;;26.86;35.73
9110;BME280;4590;51.462;6.692;2022-09-12T12:01:58;101214.69;;;27.00;38.04
9110;BME280;4590;51.462;6.692;2022-09-12T12:04:37;101219.53;;;26.96;38.43
9110;BME280;4590;51.462;6.692;2022-09-12T12:07:08;101215.09;;;26.99;38.85
9110;BME280;4590;51.462;6.692;2022-09-12T12:09:35;101214.31;;;26.91;39.05
9110;BME280;4590;51.462;6.692;2022-09-12T12:12:04;101211.88;;;26.82;38.83
9110;BME280;4590;51.462;6.692;2022-09-12T12:14:40;101209.50;;;26.70;37.74
9110;BME280;4590;51.462;6.692;2022-09-12T12:17:21;101218.75;;;26.64;37.77
9110;BME280;4590;51.462;6.692;2022-09-12T12:19:56;101201.03;;;26.63;37.49
9110;BME280;4590;51.462;6.692;2022-09-12T12:22:23;101206.28;;;26.58;38.17
9110;BME280;4590;51.462;6.692;2022-09-12T12:27:52;101195.78;;;26.30;36.83
9110;BME280;4590;51.462;6.692;2022-09-12T12:38:10;101186.50;;;26.18;38.12
9110;BME280;4590;51.462;6.692;2022-09-12T12:40:49;101192.13;;;26.08;38.18
9110;BME280;4590;51.462;6.692;2022-09-12T12:43:29;101186.00;;;25.67;36.72
9110;BME280;4590;51.462;6.692;2022-09-12T12:46:04;101183.25;;;25.81;37.37
9110;BME280;4590;51.462;6.692;2022-09-12T12:48:33;101171.56;;;25.90;37.94
9110;BME280;4590;51.462;6.692;2022-09-12T12:53:48;101167.13;;;25.74;38.08
9110;BME280;4590;51.462;6.692;2022-09-12T12:56:31;101167.09;;;25.67;37.20
9110;BME280;4590;51.462;6.692;2022-09-12T12:58:59;101172.75;;;25.74;38.06
9110;BME280;4590;51.462;6.692;2022-09-12T13:01:26;101155.06;;;25.81;38.28
9110;BME280;4590;51.462;6.692;2022-09-12T13:04:05;101169.53;;;25.65;37.54
9110;BME280;4590;51.462;6.692;2022-09-12T13:06:38;101155.81;;;25.71;37.89
9110;BME280;4590;51.462;6.692;2022-09-12T13:09:08;101144.59;;;25.78;37.51
9110;BME280;4590;51.462;6.692;2022-09-12T13:11:43;101161.47;;;25.64;37.90
9110;BME280;4590;51.462;6.692;2022-09-12T13:14:34;101150.13;;;25.53;36.83
9110;BME280;4590;51.462;6.692;2022-09-12T13:17:03;101148.97;;;25.68;37.17
9110;BME280;4590;51.462;6.692;2022-09-12T13:19:32;101136.91;;;25.75;37.76
9110;BME280;4590;51.462;6.692;2022-09-12T13:22:08;101141.34;;;25.76;37.41
9110;BME280;4590;51.462;6.692;2022-09-12T13:24:45;101124.03;;;25.77;37.77
9110;BME280;4590;51.462;6.692;2022-09-12T13:27:18;101130.91;;;25.80;37.80
9110;BME280;4590;51.462;6.692;2022-09-12T13:29:43;101130.47;;;25.85;37.66
9110;BME280;4590;51.462;6.692;2022-09-12T13:32:09;101128.47;;;25.78;37.60
9110;BME280;4590;51.462;6.692;2022-09-12T13:34:45;101128.44;;;25.82;37.41
9110;BME280;4590;51.462;6.692;2022-09-12T13:40:26;101129.69;;;25.77;36.84
9110;BME280;4590;51.462;6.692;2022-09-12T13:43:39;101127.63;;;25.67;36.97
9110;BME280;4590;51.462;6.692;2022-09-12T13:46:06;101120.41;;;25.77;37.88
9110;BME280;4590;51.462;6.692;2022-09-12T13:48:33;101123.25;;;25.88;38.55
9110;BME280;4590;51.462;6.692;2022-09-12T13:51:00;101125.25;;;25.91;38.35
9110;BME280;4590;51.462;6.692;2022-09-12T13:53:30;101122.84;;;25.93;38.32
9110;BME280;4590;51.462;6.692;2022-09-12T13:56:00;101124.47;;;25.94;38.33
9110;BME280;4590;51.462;6.692;2022-09-12T13:58:30;101112.38;;;25.93;38.10
9110;BME280;4590;51.462;6.692;2022-09-12T14:03:40;101115.59;;;25.95;38.16
9110;BME280;4590;51.462;6.692;2022-09-12T14:06:25;101105.09;;;25.99;38.40
9110;BME280;4590;51.462;6.692;2022-09-12T14:08:52;101093.81;;;25.99;38.26
9110;BME280;4590;51.462;6.692;2022-09-12T14:11:23;101097.06;;;26.01;38.38
9110;BME280;4590;51.462;6.692;2022-09-12T14:13:50;101094.66;;;25.96;38.30
9110;BME280;4590;51.462;6.692;2022-09-12T14:16:17;101103.94;;;25.97;37.60
9110;BME280;4590;51.462;6.692;2022-09-12T14:18:46;101092.63;;;25.86;37.59
9110;BME280;4590;51.462;6.692;2022-09-12T14:21:24;101097.06;;;25.73;37.26
9110;BME280;4590;51.462;6.692;2022-09-12T14:23:51;101077.72;;;25.85;37.45
9110;BME280;4590;51.462;6.692;2022-09-12T14:26:19;101084.19;;;25.97;38.07
9110;BME280;4590;51.462;6.692;2022-09-12T14:28:45;101070.06;;;26.00;38.45
9110;BME280;4590;51.462;6.692;2022-09-12T14:31:29;101063.66;;;25.96;38.21
9110;BME280;4590;51.462;6.692;2022-09-12T14:34:16;101060.41;;;25.91;37.61
9110;BME280;4590;51.462;6.692;2022-09-12T14:36:48;101070.50;;;25.81;36.92
9110;BME280;4590;51.462;6.692;2022-09-12T14:41:50;101054.38;;;25.92;37.41
9110;BME280;4590;51.462;6.692;2022-09-12T14:44:23;101058.41;;;25.91;36.87
9110;BME280;4590;51.462;6.692;2022-09-12T14:46:50;101053.16;;;26.00;37.99
9110;BME280;4590;51.462;6.692;2022-09-12T14:49:29;101047.53;;;25.97;37.52
9110;BME280;4590;51.462;6.692;2022-09-12T14:51:58;101040.66;;;26.05;38.29
9110;BME280;4590;51.462;6.692;2022-09-12T14:56:59;101039.06;;;26.07;38.58
9110;BME280;4590;51.462;6.692;2022-09-12T14:59:36;101036.66;;;25.95;37.48
9110;BME280;4590;51.462;6.692;2022-09-12T15:04:52;101023.75;;;26.01;37.80
9110;BME280;4590;51.462;6.692;2022-09-12T15:12:28;101033.03;;;25.84;37.61
9110;BME280;4590;51.462;6.692;2022-09-12T15:15:00;101031.81;;;25.92;37.91
9110;BME280;4590;51.462;6.692;2022-09-12T15:17:32;101037.47;;;25.92;37.50
9110;BME280;4590;51.462;6.692;2022-09-12T15:27:38;101019.31;;;25.86;37.50
9110;BME280;4590;51.462;6.692;2022-09-12T15:30:11;101018.13;;;25.91;37.30